Gil Vicente — CSKG — position and weather

sailwx.info

Track history (hours):
 
Tides and Currents Weather Stations Pressure Air Temp Water Temp Dewpoint Dewpoint Depression Visibility Wind Speed Wind Dir Waves Ship Positions

Gil Vicente

Last reported at 2016-Apr-29 19:34 UTC. Time now 2016-Apr-30 11:13 UTC.
Position N 38°42' W 009°08'.

Length 49 m.

Type: Passenger vessel. MMSI: 263701390.

Date/timePositionNaut miles runAvg speedWind from/ knotsBaromVisibWave heightAir tempDewpointWater temp
2016-Apr-29 19:34N 38°42' W 009°08'0 0.1
2016-Apr-29 18:34N 38°42' W 009°08'1 1.0
2016-Apr-29 17:34N 38°41' W 009°07'3 3.1
2016-Apr-29 16:33N 38°39' W 009°05'4 4.1
2016-Apr-29 15:33N 38°42' W 009°08'1 1.3
2016-Apr-29 14:33N 38°41' W 009°08'0 0.2
2016-Apr-29 13:33N 38°41' W 009°08'0 0.4
2016-Apr-29 12:33N 38°41' W 009°08'0 0.1
2016-Apr-29 11:33N 38°41' W 009°08'0 0.2
2016-Apr-29 10:33N 38°41' W 009°08'3 2.9
2016-Apr-29 09:33N 38°39' W 009°05'2 2.3
2016-Apr-29 08:33N 38°40' W 009°07'2 2.4
2016-Apr-29 07:33N 38°42' W 009°08'1 1.4
2016-Apr-29 06:33N 38°41' W 009°07'3 2.7
2016-Apr-29 05:33N 38°39' W 009°05'4 0.3
2016-Apr-28 18:33N 38°42' W 009°08'0 0.3
2016-Apr-28 17:33N 38°42' W 009°08'2 2.5
2016-Apr-28 16:33N 38°40' W 009°07'2 1.7
2016-Apr-28 15:33N 38°39' W 009°05'1 0.7
2016-Apr-28 14:33N 38°40' W 009°06'1 0.9
2016-Apr-28 13:29N 38°39' W 009°05'0 0.0
2016-Apr-28 12:33N 38°39' W 009°05'0 0.0
2016-Apr-28 11:33N 38°39' W 009°05'0 0.0
2016-Apr-28 10:32N 38°39' W 009°05'1 1.5
2016-Apr-28 09:33N 38°40' W 009°06'0 0.1
2016-Apr-28 08:33N 38°40' W 009°06'1 0.5
2016-Apr-28 07:33N 38°40' W 009°07'2 1.9
2016-Apr-28 06:33N 38°39' W 009°05'0 0.0
2016-Apr-28 05:33N 38°39' W 009°05'0 0.0
2016-Apr-28 04:33N 38°39' W 009°05'4 0.6
2016-Apr-27 22:33N 38°42' W 009°08'1 1.1
2016-Apr-27 21:33N 38°41' W 009°08'0 0.1
2016-Apr-27 20:33N 38°41' W 009°08'3 2.8
2016-Apr-27 19:33N 38°39' W 009°05'0 0.4
2016-Apr-27 18:33N 38°39' W 009°05'0 0.4
2016-Apr-27 17:33N 38°39' W 009°05'1 1.2
2016-Apr-27 16:32N 38°40' W 009°06'1 0.1
2016-Apr-27 08:32N 38°39' W 009°05'0 0.1
2016-Apr-27 07:33N 38°39' W 009°05'0 0.3
2016-Apr-27 06:33N 38°39' W 009°05'0 0.1
2016-Apr-27 05:33N 38°39' W 009°05'4 0.4
2016-Apr-26 19:33N 38°42' W 009°08'0 0.5
2016-Apr-26 18:33N 38°42' W 009°08'1 0.9
2016-Apr-26 17:34N 38°42' W 009°07'3 3.1
2016-Apr-26 16:33N 38°39' W 009°05'4 3.7
2016-Apr-26 15:33N 38°42' W 009°08'1 1.2
2016-Apr-26 14:33N 38°41' W 009°08'0 0.3
2016-Apr-26 13:32N 38°41' W 009°08'0 0.4
2016-Apr-26 12:33N 38°41' W 009°08'0 0.3
2016-Apr-26 11:33N 38°41' W 009°08'0 0.1
2016-Apr-26 10:33N 38°41' W 009°08'3 2.9
2016-Apr-26 09:33N 38°39' W 009°05'2 1.8
2016-Apr-26 08:33N 38°40' W 009°07'3 2.6
2016-Apr-26 07:33N 38°42' W 009°08'1 1.3
2016-Apr-26 06:33N 38°41' W 009°08'  
Track history (hours):
 
Tides and Currents Weather Stations Pressure Air Temp Water Temp Dewpoint Dewpoint Depression Visibility Wind Speed Wind Dir Waves Ship Positions

Gil Vicente

Last reported at 2016-Apr-29 19:34 UTC. Time now 2016-Apr-30 11:13 UTC.
Position N 38°42' W 009°08'.

Length 49 m.

Type: Passenger vessel. MMSI: 263701390.

Date/timePositionNaut miles runAvg speedWind from/ knotsBaromVisibWave heightAir tempDewpointWater temp
2016-Apr-29 19:34N 38°42' W 009°08'0 0.1
2016-Apr-29 18:34N 38°42' W 009°08'1 1.0
2016-Apr-29 17:34N 38°41' W 009°07'3 3.1
2016-Apr-29 16:33N 38°39' W 009°05'4 4.1
2016-Apr-29 15:33N 38°42' W 009°08'1 1.3
2016-Apr-29 14:33N 38°41' W 009°08'0 0.2
2016-Apr-29 13:33N 38°41' W 009°08'0 0.4
2016-Apr-29 12:33N 38°41' W 009°08'0 0.1
2016-Apr-29 11:33N 38°41' W 009°08'0 0.2
2016-Apr-29 10:33N 38°41' W 009°08'3 2.9
2016-Apr-29 09:33N 38°39' W 009°05'2 2.3
2016-Apr-29 08:33N 38°40' W 009°07'2 2.4
2016-Apr-29 07:33N 38°42' W 009°08'1 1.4
2016-Apr-29 06:33N 38°41' W 009°07'3 2.7
2016-Apr-29 05:33N 38°39' W 009°05'4 0.3
2016-Apr-28 18:33N 38°42' W 009°08'0 0.3
2016-Apr-28 17:33N 38°42' W 009°08'2 2.5
2016-Apr-28 16:33N 38°40' W 009°07'2 1.7
2016-Apr-28 15:33N 38°39' W 009°05'1 0.7
2016-Apr-28 14:33N 38°40' W 009°06'1 0.9
2016-Apr-28 13:29N 38°39' W 009°05'0 0.0
2016-Apr-28 12:33N 38°39' W 009°05'0 0.0
2016-Apr-28 11:33N 38°39' W 009°05'0 0.0
2016-Apr-28 10:32N 38°39' W 009°05'1 1.5
2016-Apr-28 09:33N 38°40' W 009°06'0 0.1
2016-Apr-28 08:33N 38°40' W 009°06'1 0.5
2016-Apr-28 07:33N 38°40' W 009°07'2 1.9
2016-Apr-28 06:33N 38°39' W 009°05'0 0.0
2016-Apr-28 05:33N 38°39' W 009°05'0 0.0
2016-Apr-28 04:33N 38°39' W 009°05'4 0.6
2016-Apr-27 22:33N 38°42' W 009°08'1 1.1
2016-Apr-27 21:33N 38°41' W 009°08'0 0.1
2016-Apr-27 20:33N 38°41' W 009°08'3 2.8
2016-Apr-27 19:33N 38°39' W 009°05'0 0.4
2016-Apr-27 18:33N 38°39' W 009°05'0 0.4
2016-Apr-27 17:33N 38°39' W 009°05'1 1.2
2016-Apr-27 16:32N 38°40' W 009°06'1 0.1
2016-Apr-27 08:32N 38°39' W 009°05'0 0.1
2016-Apr-27 07:33N 38°39' W 009°05'0 0.3
2016-Apr-27 06:33N 38°39' W 009°05'0 0.1
2016-Apr-27 05:33N 38°39' W 009°05'4 0.4
2016-Apr-26 19:33N 38°42' W 009°08'0 0.5
2016-Apr-26 18:33N 38°42' W 009°08'1 0.9
2016-Apr-26 17:34N 38°42' W 009°07'3 3.1
2016-Apr-26 16:33N 38°39' W 009°05'4 3.7
2016-Apr-26 15:33N 38°42' W 009°08'1 1.2
2016-Apr-26 14:33N 38°41' W 009°08'0 0.3
2016-Apr-26 13:32N 38°41' W 009°08'0 0.4
2016-Apr-26 12:33N 38°41' W 009°08'0 0.3
2016-Apr-26 11:33N 38°41' W 009°08'0 0.1
2016-Apr-26 10:33N 38°41' W 009°08'3 2.9
2016-Apr-26 09:33N 38°39' W 009°05'2 1.8
2016-Apr-26 08:33N 38°40' W 009°07'3 2.6
2016-Apr-26 07:33N 38°42' W 009°08'1 1.3
2016-Apr-26 06:33N 38°41' W 009°08'  

Dump ship's entire track history